Gainesville, Alabama
Current Conditions -  °F | °C
As of 3:55 PM on Sunday 25 Jan 2015 (Local Time) from KDYA Reporting Station
Clear Clear  
Wind Chill: 64°   Ceiling: Unl
Heat Index: 64°   Visibility: 10mi
Dew Point: 35°   Wind: 15mph
Humidity: 34%   Direction: 210°SSW
Pressure: 29.76"   Gusts: 21mph
Location:  32.82°N, 88.16°W
Report Text: KDYA 252155Z AUTO 21013G18KT 10SM CLR 18/01 A2976 RMK AO2 T01770014
Loading
Personal Weather Stations






























Interactive Weather Map New forecast layout! Learn more

10-Day Weather Forecast

Advertisements
Track Severe Weather on mobile